sensor_id;sensor_type;location;lat;lon;timestamp;P1;durP1;ratioP1;P2;durP2;ratioP2
12768;SDS011;6448;48.916;8.990;2023-08-30T00:00:29;1.20;;;1.10;;
12768;SDS011;6448;48.916;8.990;2023-08-30T00:01:31;1.67;;;1.20;;
12768;SDS011;6448;48.916;8.990;2023-08-30T00:02:32;1.20;;;1.10;;
12768;SDS011;6448;48.916;8.990;2023-08-30T00:03:34;1.20;;;1.10;;
12768;SDS011;6448;48.916;8.990;2023-08-30T00:04:36;1.20;;;1.10;;
12768;SDS011;6448;48.916;8.990;2023-08-30T00:05:38;1.30;;;1.20;;
12768;SDS011;6448;48.916;8.990;2023-08-30T00:06:40;1.10;;;1.00;;
12768;SDS011;6448;48.916;8.990;2023-08-30T00:07:42;1.40;;;1.20;;
12768;SDS011;6448;48.916;8.990;2023-08-30T00:08:44;1.40;;;1.20;;
12768;SDS011;6448;48.916;8.990;2023-08-30T00:09:45;1.13;;;1.10;;
12768;SDS011;6448;48.916;8.990;2023-08-30T00:10:47;1.30;;;1.13;;
12768;SDS011;6448;48.916;8.990;2023-08-30T00:11:48;1.30;;;1.10;;
12768;SDS011;6448;48.916;8.990;2023-08-30T00:12:50;1.10;;;1.00;;
12768;SDS011;6448;48.916;8.990;2023-08-30T00:13:51;1.35;;;1.10;;
12768;SDS011;6448;48.916;8.990;2023-08-30T00:14:52;1.80;;;1.10;;
12768;SDS011;6448;48.916;8.990;2023-08-30T00:15:54;1.23;;;1.13;;
12768;SDS011;6448;48.916;8.990;2023-08-30T00:16:56;1.20;;;1.10;;
12768;SDS011;6448;48.916;8.990;2023-08-30T00:17:57;1.30;;;1.15;;
12768;SDS011;6448;48.916;8.990;2023-08-30T00:18:59;1.30;;;1.20;;
12768;SDS011;6448;48.916;8.990;2023-08-30T00:20:00;1.23;;;1.13;;
12768;SDS011;6448;48.916;8.990;2023-08-30T00:21:03;2.20;;;1.23;;
12768;SDS011;6448;48.916;8.990;2023-08-30T00:22:03;1.25;;;1.10;;
12768;SDS011;6448;48.916;8.990;2023-08-30T00:23:08;1.23;;;1.13;;
12768;SDS011;6448;48.916;8.990;2023-08-30T00:24:09;1.33;;;1.23;;
12768;SDS011;6448;48.916;8.990;2023-08-30T00:25:11;1.80;;;1.20;;
12768;SDS011;6448;48.916;8.990;2023-08-30T00:26:12;1.40;;;1.30;;
12768;SDS011;6448;48.916;8.990;2023-08-30T00:27:13;1.25;;;1.15;;
12768;SDS011;6448;48.916;8.990;2023-08-30T00:28:14;1.20;;;1.10;;
12768;SDS011;6448;48.916;8.990;2023-08-30T00:29:15;1.35;;;1.10;;
12768;SDS011;6448;48.916;8.990;2023-08-30T00:30:17;1.43;;;1.10;;
12768;SDS011;6448;48.916;8.990;2023-08-30T00:31:17;1.10;;;1.10;;
12768;SDS011;6448;48.916;8.990;2023-08-30T00:32:19;1.20;;;1.10;;
12768;SDS011;6448;48.916;8.990;2023-08-30T00:33:21;1.30;;;1.20;;
12768;SDS011;6448;48.916;8.990;2023-08-30T00:34:23;1.30;;;1.20;;
12768;SDS011;6448;48.916;8.990;2023-08-30T00:35:24;1.27;;;1.17;;
12768;SDS011;6448;48.916;8.990;2023-08-30T00:36:26;1.52;;;1.20;;
12768;SDS011;6448;48.916;8.990;2023-08-30T00:37:27;1.52;;;1.20;;
12768;SDS011;6448;48.916;8.990;2023-08-30T00:38:32;1.30;;;1.20;;
12768;SDS011;6448;48.916;8.990;2023-08-30T00:39:33;1.30;;;1.20;;
12768;SDS011;6448;48.916;8.990;2023-08-30T00:40:38;1.30;;;1.15;;
12768;SDS011;6448;48.916;8.990;2023-08-30T00:41:39;1.80;;;1.20;;
12768;SDS011;6448;48.916;8.990;2023-08-30T00:42:41;1.30;;;1.20;;
12768;SDS011;6448;48.916;8.990;2023-08-30T00:43:42;1.85;;;1.30;;
12768;SDS011;6448;48.916;8.990;2023-08-30T00:44:44;1.30;;;1.20;;
12768;SDS011;6448;48.916;8.990;2023-08-30T00:45:45;1.45;;;1.20;;
12768;SDS011;6448;48.916;8.990;2023-08-30T00:46:47;1.83;;;1.02;;
12768;SDS011;6448;48.916;8.990;2023-08-30T00:47:49;1.55;;;1.30;;
12768;SDS011;6448;48.916;8.990;2023-08-30T00:48:51;1.40;;;1.20;;
12768;SDS011;6448;48.916;8.990;2023-08-30T00:49:53;1.30;;;1.20;;
12768;SDS011;6448;48.916;8.990;2023-08-30T00:50:54;1.90;;;1.23;;
12768;SDS011;6448;48.916;8.990;2023-08-30T00:51:55;2.40;;;1.30;;
12768;SDS011;6448;48.916;8.990;2023-08-30T00:52:58;1.30;;;1.20;;
12768;SDS011;6448;48.916;8.990;2023-08-30T00:54:03;1.30;;;1.20;;
12768;SDS011;6448;48.916;8.990;2023-08-30T00:55:06;1.27;;;1.17;;
12768;SDS011;6448;48.916;8.990;2023-08-30T00:56:08;1.57;;;1.30;;
12768;SDS011;6448;48.916;8.990;2023-08-30T00:57:09;1.40;;;1.20;;
12768;SDS011;6448;48.916;8.990;2023-08-30T00:58:11;1.40;;;1.30;;
12768;SDS011;6448;48.916;8.990;2023-08-30T00:59:13;1.40;;;1.30;;
12768;SDS011;6448;48.916;8.990;2023-08-30T01:00:15;1.20;;;1.20;;
12768;SDS011;6448;48.916;8.990;2023-08-30T01:01:16;1.30;;;1.20;;
12768;SDS011;6448;48.916;8.990;2023-08-30T01:02:18;1.30;;;1.10;;
12768;SDS011;6448;48.916;8.990;2023-08-30T01:03:19;1.30;;;1.20;;
12768;SDS011;6448;48.916;8.990;2023-08-30T01:04:22;1.30;;;1.20;;
12768;SDS011;6448;48.916;8.990;2023-08-30T01:05:23;1.15;;;1.05;;
12768;SDS011;6448;48.916;8.990;2023-08-30T01:06:25;1.30;;;1.20;;
12768;SDS011;6448;48.916;8.990;2023-08-30T01:07:26;1.50;;;1.40;;
12768;SDS011;6448;48.916;8.990;2023-08-30T01:08:28;1.27;;;1.17;;
12768;SDS011;6448;48.916;8.990;2023-08-30T01:09:31;1.33;;;1.23;;
12768;SDS011;6448;48.916;8.990;2023-08-30T01:10:43;1.13;;;1.13;;
12768;SDS011;6448;48.916;8.990;2023-08-30T01:11:50;1.50;;;1.30;;
12768;SDS011;6448;48.916;8.990;2023-08-30T01:13:03;1.20;;;1.20;;
12768;SDS011;6448;48.916;8.990;2023-08-30T01:14:09;1.20;;;1.10;;
12768;SDS011;6448;48.916;8.990;2023-08-30T01:15:15;1.20;;;1.10;;
12768;SDS011;6448;48.916;8.990;2023-08-30T01:16:19;1.30;;;1.20;;
12768;SDS011;6448;48.916;8.990;2023-08-30T01:17:26;1.33;;;1.17;;
12768;SDS011;6448;48.916;8.990;2023-08-30T01:18:30;1.90;;;1.30;;
12768;SDS011;6448;48.916;8.990;2023-08-30T01:19:38;1.50;;;1.20;;
12768;SDS011;6448;48.916;8.990;2023-08-30T01:20:43;1.27;;;1.15;;
12768;SDS011;6448;48.916;8.990;2023-08-30T01:21:48;1.55;;;1.10;;
12768;SDS011;6448;48.916;8.990;2023-08-30T01:22:55;1.42;;;1.23;;
12768;SDS011;6448;48.916;8.990;2023-08-30T01:24:00;1.30;;;1.20;;
12768;SDS011;6448;48.916;8.990;2023-08-30T01:25:08;1.40;;;1.30;;
12768;SDS011;6448;48.916;8.990;2023-08-30T01:26:24;1.23;;;1.13;;
12768;SDS011;6448;48.916;8.990;2023-08-30T01:27:46;1.40;;;1.10;;
12768;SDS011;6448;48.916;8.990;2023-08-30T01:28:48;1.40;;;1.20;;
12768;SDS011;6448;48.916;8.990;2023-08-30T01:29:52;1.30;;;1.20;;
12768;SDS011;6448;48.916;8.990;2023-08-30T01:30:56;1.40;;;1.15;;
12768;SDS011;6448;48.916;8.990;2023-08-30T01:32:01;1.30;;;1.20;;
12768;SDS011;6448;48.916;8.990;2023-08-30T01:33:03;1.40;;;1.30;;
12768;SDS011;6448;48.916;8.990;2023-08-30T01:34:06;1.30;;;1.10;;
12768;SDS011;6448;48.916;8.990;2023-08-30T01:35:06;1.25;;;1.15;;
12768;SDS011;6448;48.916;8.990;2023-08-30T01:36:08;1.30;;;1.20;;
12768;SDS011;6448;48.916;8.990;2023-08-30T01:37:10;1.27;;;1.17;;
12768;SDS011;6448;48.916;8.990;2023-08-30T01:38:14;1.20;;;1.10;;
12768;SDS011;6448;48.916;8.990;2023-08-30T01:39:16;1.20;;;1.10;;
12768;SDS011;6448;48.916;8.990;2023-08-30T01:40:17;1.00;;;1.00;;
12768;SDS011;6448;48.916;8.990;2023-08-30T01:41:20;1.38;;;1.27;;
12768;SDS011;6448;48.916;8.990;2023-08-30T01:42:23;1.20;;;1.10;;
12768;SDS011;6448;48.916;8.990;2023-08-30T01:43:28;1.20;;;1.00;;
12768;SDS011;6448;48.916;8.990;2023-08-30T01:44:30;1.30;;;1.20;;
12768;SDS011;6448;48.916;8.990;2023-08-30T01:45:33;1.30;;;1.20;;
12768;SDS011;6448;48.916;8.990;2023-08-30T01:46:36;1.13;;;1.10;;
12768;SDS011;6448;48.916;8.990;2023-08-30T01:47:39;1.40;;;1.20;;
12768;SDS011;6448;48.916;8.990;2023-08-30T01:48:42;1.20;;;1.10;;
12768;SDS011;6448;48.916;8.990;2023-08-30T01:49:44;1.20;;;1.10;;
12768;SDS011;6448;48.916;8.990;2023-08-30T01:50:46;1.20;;;1.10;;
12768;SDS011;6448;48.916;8.990;2023-08-30T01:51:49;1.45;;;1.25;;
12768;SDS011;6448;48.916;8.990;2023-08-30T01:52:51;1.20;;;1.10;;
12768;SDS011;6448;48.916;8.990;2023-08-30T01:53:54;1.60;;;1.10;;
12768;SDS011;6448;48.916;8.990;2023-08-30T01:54:55;1.80;;;1.10;;
12768;SDS011;6448;48.916;8.990;2023-08-30T01:55:59;1.20;;;1.10;;
12768;SDS011;6448;48.916;8.990;2023-08-30T01:57:00;1.30;;;1.20;;
12768;SDS011;6448;48.916;8.990;2023-08-30T01:58:01;1.30;;;1.20;;
12768;SDS011;6448;48.916;8.990;2023-08-30T01:59:04;1.30;;;1.20;;
12768;SDS011;6448;48.916;8.990;2023-08-30T02:00:05;1.33;;;1.23;;
12768;SDS011;6448;48.916;8.990;2023-08-30T02:01:16;1.30;;;1.20;;
12768;SDS011;6448;48.916;8.990;2023-08-30T02:02:16;1.60;;;1.30;;
12768;SDS011;6448;48.916;8.990;2023-08-30T02:03:18;1.55;;;1.30;;
12768;SDS011;6448;48.916;8.990;2023-08-30T02:04:20;1.30;;;1.20;;
12768;SDS011;6448;48.916;8.990;2023-08-30T02:05:22;1.45;;;1.17;;
12768;SDS011;6448;48.916;8.990;2023-08-30T02:06:24;1.38;;;1.27;;
12768;SDS011;6448;48.916;8.990;2023-08-30T02:07:33;1.30;;;1.20;;
12768;SDS011;6448;48.916;8.990;2023-08-30T02:08:41;1.40;;;1.30;;
12768;SDS011;6448;48.916;8.990;2023-08-30T02:09:48;1.40;;;1.30;;
12768;SDS011;6448;48.916;8.990;2023-08-30T02:10:55;1.40;;;1.30;;
12768;SDS011;6448;48.916;8.990;2023-08-30T02:12:00;1.30;;;1.20;;
12768;SDS011;6448;48.916;8.990;2023-08-30T02:13:04;1.33;;;1.23;;
12768;SDS011;6448;48.916;8.990;2023-08-30T02:14:08;1.30;;;1.20;;
12768;SDS011;6448;48.916;8.990;2023-08-30T02:15:11;1.80;;;1.35;;
12768;SDS011;6448;48.916;8.990;2023-08-30T02:16:15;1.60;;;1.38;;
12768;SDS011;6448;48.916;8.990;2023-08-30T02:17:18;1.30;;;1.20;;
12768;SDS011;6448;48.916;8.990;2023-08-30T02:18:21;1.30;;;1.20;;
12768;SDS011;6448;48.916;8.990;2023-08-30T02:19:26;1.50;;;1.40;;
12768;SDS011;6448;48.916;8.990;2023-08-30T02:20:28;1.40;;;1.30;;
12768;SDS011;6448;48.916;8.990;2023-08-30T02:21:29;1.40;;;1.30;;
12768;SDS011;6448;48.916;8.990;2023-08-30T02:22:31;1.48;;;1.38;;
12768;SDS011;6448;48.916;8.990;2023-08-30T02:23:32;2.10;;;1.30;;
12768;SDS011;6448;48.916;8.990;2023-08-30T02:24:34;1.40;;;1.23;;
12768;SDS011;6448;48.916;8.990;2023-08-30T02:25:34;1.20;;;1.10;;
12768;SDS011;6448;48.916;8.990;2023-08-30T02:26:35;1.10;;;1.10;;
12768;SDS011;6448;48.916;8.990;2023-08-30T02:27:37;2.00;;;1.20;;
12768;SDS011;6448;48.916;8.990;2023-08-30T02:28:38;1.30;;;1.20;;
12768;SDS011;6448;48.916;8.990;2023-08-30T02:29:41;1.48;;;1.30;;
12768;SDS011;6448;48.916;8.990;2023-08-30T02:30:42;1.20;;;1.20;;
12768;SDS011;6448;48.916;8.990;2023-08-30T02:31:44;1.30;;;1.20;;
12768;SDS011;6448;48.916;8.990;2023-08-30T02:32:45;1.30;;;1.20;;
12768;SDS011;6448;48.916;8.990;2023-08-30T02:33:46;1.42;;;1.30;;
12768;SDS011;6448;48.916;8.990;2023-08-30T02:34:49;1.23;;;1.13;;
12768;SDS011;6448;48.916;8.990;2023-08-30T02:35:54;1.90;;;1.33;;
12768;SDS011;6448;48.916;8.990;2023-08-30T02:36:55;1.40;;;1.20;;
12768;SDS011;6448;48.916;8.990;2023-08-30T02:37:58;1.30;;;1.20;;
12768;SDS011;6448;48.916;8.990;2023-08-30T02:38:59;1.40;;;1.30;;
12768;SDS011;6448;48.916;8.990;2023-08-30T02:40:01;1.23;;;1.13;;
12768;SDS011;6448;48.916;8.990;2023-08-30T02:41:02;1.15;;;1.10;;
12768;SDS011;6448;48.916;8.990;2023-08-30T02:42:04;1.30;;;1.20;;
12768;SDS011;6448;48.916;8.990;2023-08-30T02:43:05;1.33;;;1.20;;
12768;SDS011;6448;48.916;8.990;2023-08-30T02:44:07;2.20;;;1.30;;
12768;SDS011;6448;48.916;8.990;2023-08-30T02:45:10;1.85;;;1.40;;
12768;SDS011;6448;48.916;8.990;2023-08-30T02:46:12;1.90;;;1.20;;
12768;SDS011;6448;48.916;8.990;2023-08-30T02:47:12;1.20;;;1.10;;
12768;SDS011;6448;48.916;8.990;2023-08-30T02:48:14;1.67;;;1.40;;
12768;SDS011;6448;48.916;8.990;2023-08-30T02:49:15;1.63;;;1.33;;
12768;SDS011;6448;48.916;8.990;2023-08-30T02:50:18;1.38;;;1.27;;
12768;SDS011;6448;48.916;8.990;2023-08-30T02:51:19;1.30;;;1.20;;
12768;SDS011;6448;48.916;8.990;2023-08-30T02:52:21;1.50;;;1.40;;
12768;SDS011;6448;48.916;8.990;2023-08-30T02:53:22;1.55;;;1.45;;
12768;SDS011;6448;48.916;8.990;2023-08-30T02:54:23;1.40;;;1.30;;
12768;SDS011;6448;48.916;8.990;2023-08-30T02:55:24;1.40;;;1.30;;
12768;SDS011;6448;48.916;8.990;2023-08-30T02:56:26;1.40;;;1.30;;
12768;SDS011;6448;48.916;8.990;2023-08-30T02:57:27;1.70;;;1.60;;
12768;SDS011;6448;48.916;8.990;2023-08-30T02:58:29;1.42;;;1.30;;
12768;SDS011;6448;48.916;8.990;2023-08-30T02:59:33;1.50;;;1.40;;
12768;SDS011;6448;48.916;8.990;2023-08-30T03:00:40;1.58;;;1.48;;
12768;SDS011;6448;48.916;8.990;2023-08-30T03:01:43;1.88;;;1.40;;
12768;SDS011;6448;48.916;8.990;2023-08-30T03:02:46;1.52;;;1.42;;
12768;SDS011;6448;48.916;8.990;2023-08-30T03:03:48;1.40;;;1.30;;
12768;SDS011;6448;48.916;8.990;2023-08-30T03:04:52;1.50;;;1.30;;
12768;SDS011;6448;48.916;8.990;2023-08-30T03:05:55;1.35;;;1.20;;
12768;SDS011;6448;48.916;8.990;2023-08-30T03:06:57;1.80;;;1.30;;
12768;SDS011;6448;48.916;8.990;2023-08-30T03:08:01;1.40;;;1.30;;
12768;SDS011;6448;48.916;8.990;2023-08-30T03:09:03;1.30;;;1.20;;
12768;SDS011;6448;48.916;8.990;2023-08-30T03:10:08;1.40;;;1.30;;
12768;SDS011;6448;48.916;8.990;2023-08-30T03:11:11;1.42;;;1.33;;
12768;SDS011;6448;48.916;8.990;2023-08-30T03:12:20;1.48;;;1.38;;
12768;SDS011;6448;48.916;8.990;2023-08-30T03:13:22;2.00;;;1.40;;
12768;SDS011;6448;48.916;8.990;2023-08-30T03:14:23;1.50;;;1.40;;
12768;SDS011;6448;48.916;8.990;2023-08-30T03:15:25;1.45;;;1.35;;
12768;SDS011;6448;48.916;8.990;2023-08-30T03:16:27;1.48;;;1.38;;
12768;SDS011;6448;48.916;8.990;2023-08-30T03:17:29;1.60;;;1.33;;
12768;SDS011;6448;48.916;8.990;2023-08-30T03:18:32;1.40;;;1.30;;
12768;SDS011;6448;48.916;8.990;2023-08-30T03:19:34;1.50;;;1.30;;
12768;SDS011;6448;48.916;8.990;2023-08-30T03:20:37;2.10;;;1.48;;
12768;SDS011;6448;48.916;8.990;2023-08-30T03:21:37;1.50;;;1.40;;
12768;SDS011;6448;48.916;8.990;2023-08-30T03:22:41;1.50;;;1.27;;
12768;SDS011;6448;48.916;8.990;2023-08-30T03:23:42;1.40;;;1.30;;
12768;SDS011;6448;48.916;8.990;2023-08-30T03:24:44;1.50;;;1.40;;
12768;SDS011;6448;48.916;8.990;2023-08-30T03:25:46;1.50;;;1.38;;
12768;SDS011;6448;48.916;8.990;2023-08-30T03:26:47;1.90;;;1.30;;
12768;SDS011;6448;48.916;8.990;2023-08-30T03:27:48;2.30;;;1.35;;
12768;SDS011;6448;48.916;8.990;2023-08-30T03:28:49;1.50;;;1.40;;
12768;SDS011;6448;48.916;8.990;2023-08-30T03:29:51;1.33;;;1.23;;
12768;SDS011;6448;48.916;8.990;2023-08-30T03:30:52;1.70;;;1.38;;
12768;SDS011;6448;48.916;8.990;2023-08-30T03:31:55;1.40;;;1.30;;
12768;SDS011;6448;48.916;8.990;2023-08-30T03:32:56;1.52;;;1.25;;
12768;SDS011;6448;48.916;8.990;2023-08-30T03:33:58;2.00;;;1.30;;
12768;SDS011;6448;48.916;8.990;2023-08-30T03:34:58;1.50;;;1.40;;
12768;SDS011;6448;48.916;8.990;2023-08-30T03:36:00;1.48;;;1.38;;
12768;SDS011;6448;48.916;8.990;2023-08-30T03:37:01;1.70;;;1.50;;
12768;SDS011;6448;48.916;8.990;2023-08-30T03:38:03;1.35;;;1.25;;
12768;SDS011;6448;48.916;8.990;2023-08-30T03:39:04;1.40;;;1.30;;
12768;SDS011;6448;48.916;8.990;2023-08-30T03:40:05;2.30;;;1.30;;
12768;SDS011;6448;48.916;8.990;2023-08-30T03:41:09;1.40;;;1.30;;
12768;SDS011;6448;48.916;8.990;2023-08-30T03:42:10;1.20;;;1.10;;
12768;SDS011;6448;48.916;8.990;2023-08-30T03:43:12;1.50;;;1.40;;
12768;SDS011;6448;48.916;8.990;2023-08-30T03:44:13;1.60;;;1.50;;
12768;SDS011;6448;48.916;8.990;2023-08-30T03:45:14;1.40;;;1.30;;
12768;SDS011;6448;48.916;8.990;2023-08-30T03:46:15;2.30;;;1.20;;
12768;SDS011;6448;48.916;8.990;2023-08-30T03:47:19;1.35;;;1.25;;
12768;SDS011;6448;48.916;8.990;2023-08-30T03:48:20;2.40;;;1.38;;
12768;SDS011;6448;48.916;8.990;2023-08-30T03:49:21;1.45;;;1.33;;
12768;SDS011;6448;48.916;8.990;2023-08-30T03:50:22;1.40;;;1.30;;
12768;SDS011;6448;48.916;8.990;2023-08-30T03:51:24;1.50;;;1.30;;
12768;SDS011;6448;48.916;8.990;2023-08-30T03:52:25;1.40;;;1.20;;
12768;SDS011;6448;48.916;8.990;2023-08-30T03:53:27;1.40;;;1.30;;
12768;SDS011;6448;48.916;8.990;2023-08-30T03:54:27;1.23;;;1.20;;
12768;SDS011;6448;48.916;8.990;2023-08-30T03:55:28;1.30;;;1.20;;
12768;SDS011;6448;48.916;8.990;2023-08-30T03:56:31;1.30;;;1.20;;
12768;SDS011;6448;48.916;8.990;2023-08-30T03:57:32;1.40;;;1.30;;
12768;SDS011;6448;48.916;8.990;2023-08-30T03:58:36;1.85;;;1.40;;
12768;SDS011;6448;48.916;8.990;2023-08-30T03:59:38;1.38;;;1.27;;
12768;SDS011;6448;48.916;8.990;2023-08-30T04:00:40;1.50;;;1.40;;
12768;SDS011;6448;48.916;8.990;2023-08-30T04:01:40;1.40;;;1.30;;
12768;SDS011;6448;48.916;8.990;2023-08-30T04:02:44;1.40;;;1.30;;
12768;SDS011;6448;48.916;8.990;2023-08-30T04:03:45;1.50;;;1.40;;
12768;SDS011;6448;48.916;8.990;2023-08-30T04:04:47;1.50;;;1.40;;
12768;SDS011;6448;48.916;8.990;2023-08-30T04:05:48;1.40;;;1.30;;
12768;SDS011;6448;48.916;8.990;2023-08-30T04:06:56;1.50;;;1.40;;
12768;SDS011;6448;48.916;8.990;2023-08-30T04:07:57;1.40;;;1.30;;
12768;SDS011;6448;48.916;8.990;2023-08-30T04:08:59;1.88;;;1.60;;
12768;SDS011;6448;48.916;8.990;2023-08-30T04:09:59;1.40;;;1.30;;
12768;SDS011;6448;48.916;8.990;2023-08-30T04:11:02;1.30;;;1.20;;
12768;SDS011;6448;48.916;8.990;2023-08-30T04:12:04;1.65;;;1.30;;
12768;SDS011;6448;48.916;8.990;2023-08-30T04:13:06;2.10;;;1.38;;
12768;SDS011;6448;48.916;8.990;2023-08-30T04:14:08;1.50;;;1.40;;
12768;SDS011;6448;48.916;8.990;2023-08-30T04:15:09;1.45;;;1.20;;
12768;SDS011;6448;48.916;8.990;2023-08-30T04:16:13;1.33;;;1.23;;
12768;SDS011;6448;48.916;8.990;2023-08-30T04:17:14;1.97;;;1.40;;
12768;SDS011;6448;48.916;8.990;2023-08-30T04:18:17;1.48;;;1.30;;
12768;SDS011;6448;48.916;8.990;2023-08-30T04:19:18;1.90;;;1.40;;
12768;SDS011;6448;48.916;8.990;2023-08-30T04:20:20;1.42;;;1.33;;
12768;SDS011;6448;48.916;8.990;2023-08-30T04:21:21;1.40;;;1.30;;
12768;SDS011;6448;48.916;8.990;2023-08-30T04:22:21;2.00;;;1.30;;
12768;SDS011;6448;48.916;8.990;2023-08-30T04:23:23;1.40;;;1.30;;
12768;SDS011;6448;48.916;8.990;2023-08-30T04:24:24;1.40;;;1.30;;
12768;SDS011;6448;48.916;8.990;2023-08-30T04:25:26;1.40;;;1.30;;
12768;SDS011;6448;48.916;8.990;2023-08-30T04:26:27;1.52;;;1.20;;
12768;SDS011;6448;48.916;8.990;2023-08-30T04:27:30;1.35;;;1.20;;
12768;SDS011;6448;48.916;8.990;2023-08-30T04:28:31;3.38;;;1.30;;
12768;SDS011;6448;48.916;8.990;2023-08-30T04:29:32;1.50;;;1.40;;
12768;SDS011;6448;48.916;8.990;2023-08-30T04:30:35;1.30;;;1.20;;
12768;SDS011;6448;48.916;8.990;2023-08-30T04:31:36;1.77;;;1.40;;
12768;SDS011;6448;48.916;8.990;2023-08-30T04:32:38;1.50;;;1.40;;
12768;SDS011;6448;48.916;8.990;2023-08-30T04:33:40;1.67;;;1.50;;
12768;SDS011;6448;48.916;8.990;2023-08-30T04:34:43;1.33;;;1.23;;
12768;SDS011;6448;48.916;8.990;2023-08-30T04:35:44;1.73;;;1.40;;
12768;SDS011;6448;48.916;8.990;2023-08-30T04:36:51;1.42;;;1.33;;
12768;SDS011;6448;48.916;8.990;2023-08-30T04:37:52;1.20;;;1.20;;
12768;SDS011;6448;48.916;8.990;2023-08-30T04:38:54;1.30;;;1.20;;
12768;SDS011;6448;48.916;8.990;2023-08-30T04:39:55;1.60;;;1.30;;
12768;SDS011;6448;48.916;8.990;2023-08-30T04:40:57;1.50;;;1.27;;
12768;SDS011;6448;48.916;8.990;2023-08-30T04:42:00;2.00;;;1.40;;
12768;SDS011;6448;48.916;8.990;2023-08-30T04:43:03;1.77;;;1.30;;
12768;SDS011;6448;48.916;8.990;2023-08-30T04:44:04;1.70;;;1.23;;
12768;SDS011;6448;48.916;8.990;2023-08-30T04:45:06;2.05;;;1.40;;
12768;SDS011;6448;48.916;8.990;2023-08-30T04:46:08;1.42;;;1.33;;
12768;SDS011;6448;48.916;8.990;2023-08-30T04:47:10;1.60;;;1.50;;
12768;SDS011;6448;48.916;8.990;2023-08-30T04:48:12;1.50;;;1.40;;
12768;SDS011;6448;48.916;8.990;2023-08-30T04:49:15;1.80;;;1.30;;
12768;SDS011;6448;48.916;8.990;2023-08-30T04:50:17;1.85;;;1.48;;
12768;SDS011;6448;48.916;8.990;2023-08-30T04:51:19;1.40;;;1.30;;
12768;SDS011;6448;48.916;8.990;2023-08-30T04:52:20;1.47;;;1.37;;
12768;SDS011;6448;48.916;8.990;2023-08-30T04:53:23;1.40;;;1.30;;
12768;SDS011;6448;48.916;8.990;2023-08-30T04:54:24;1.50;;;1.40;;
12768;SDS011;6448;48.916;8.990;2023-08-30T04:55:27;1.58;;;1.40;;
12768;SDS011;6448;48.916;8.990;2023-08-30T04:56:29;1.30;;;1.20;;
12768;SDS011;6448;48.916;8.990;2023-08-30T04:57:30;1.40;;;1.30;;
12768;SDS011;6448;48.916;8.990;2023-08-30T04:58:31;1.88;;;1.52;;
12768;SDS011;6448;48.916;8.990;2023-08-30T04:59:34;1.63;;;1.33;;
12768;SDS011;6448;48.916;8.990;2023-08-30T05:00:35;1.85;;;1.30;;
12768;SDS011;6448;48.916;8.990;2023-08-30T05:01:37;1.58;;;1.40;;
12768;SDS011;6448;48.916;8.990;2023-08-30T05:02:39;1.70;;;1.33;;
12768;SDS011;6448;48.916;8.990;2023-08-30T05:03:44;2.60;;;1.30;;
12768;SDS011;6448;48.916;8.990;2023-08-30T05:04:48;1.50;;;1.38;;
12768;SDS011;6448;48.916;8.990;2023-08-30T05:05:50;1.50;;;1.40;;
12768;SDS011;6448;48.916;8.990;2023-08-30T05:06:51;1.30;;;1.20;;
12768;SDS011;6448;48.916;8.990;2023-08-30T05:07:53;1.60;;;1.30;;
12768;SDS011;6448;48.916;8.990;2023-08-30T05:08:54;1.40;;;1.30;;
12768;SDS011;6448;48.916;8.990;2023-08-30T05:09:55;1.47;;;1.37;;
12768;SDS011;6448;48.916;8.990;2023-08-30T05:10:56;1.50;;;1.40;;
12768;SDS011;6448;48.916;8.990;2023-08-30T05:11:59;1.58;;;1.48;;
12768;SDS011;6448;48.916;8.990;2023-08-30T05:13:00;1.47;;;1.37;;
12768;SDS011;6448;48.916;8.990;2023-08-30T05:14:02;1.50;;;1.40;;
12768;SDS011;6448;48.916;8.990;2023-08-30T05:15:03;1.60;;;1.50;;
12768;SDS011;6448;48.916;8.990;2023-08-30T05:16:04;1.50;;;1.40;;
12768;SDS011;6448;48.916;8.990;2023-08-30T05:17:06;1.52;;;1.38;;
12768;SDS011;6448;48.916;8.990;2023-08-30T05:18:07;1.60;;;1.50;;
12768;SDS011;6448;48.916;8.990;2023-08-30T05:19:09;1.40;;;1.30;;
12768;SDS011;6448;48.916;8.990;2023-08-30T05:20:11;1.85;;;1.60;;
12768;SDS011;6448;48.916;8.990;2023-08-30T05:21:13;1.58;;;1.48;;
12768;SDS011;6448;48.916;8.990;2023-08-30T05:22:15;1.70;;;1.40;;
12768;SDS011;6448;48.916;8.990;2023-08-30T05:23:16;1.50;;;1.40;;
12768;SDS011;6448;48.916;8.990;2023-08-30T05:24:18;2.45;;;1.65;;
12768;SDS011;6448;48.916;8.990;2023-08-30T05:25:20;2.20;;;1.60;;
12768;SDS011;6448;48.916;8.990;2023-08-30T05:26:21;1.98;;;1.33;;
12768;SDS011;6448;48.916;8.990;2023-08-30T05:27:22;1.60;;;1.50;;
12768;SDS011;6448;48.916;8.990;2023-08-30T05:28:23;1.63;;;1.52;;
12768;SDS011;6448;48.916;8.990;2023-08-30T05:29:25;1.58;;;1.48;;
12768;SDS011;6448;48.916;8.990;2023-08-30T05:30:26;1.60;;;1.50;;
12768;SDS011;6448;48.916;8.990;2023-08-30T05:31:30;2.22;;;1.50;;
12768;SDS011;6448;48.916;8.990;2023-08-30T05:32:53;1.55;;;1.45;;
12768;SDS011;6448;48.916;8.990;2023-08-30T05:34:14;1.73;;;1.60;;
12768;SDS011;6448;48.916;8.990;2023-08-30T05:35:16;1.73;;;1.63;;
12768;SDS011;6448;48.916;8.990;2023-08-30T05:36:29;2.28;;;1.70;;
12768;SDS011;6448;48.916;8.990;2023-08-30T05:37:50;1.60;;;1.40;;
12768;SDS011;6448;48.916;8.990;2023-08-30T05:39:12;1.50;;;1.40;;
12768;SDS011;6448;48.916;8.990;2023-08-30T05:40:19;1.70;;;1.60;;
12768;SDS011;6448;48.916;8.990;2023-08-30T05:41:21;2.72;;;1.60;;
12768;SDS011;6448;48.916;8.990;2023-08-30T05:42:22;2.05;;;1.60;;
12768;SDS011;6448;48.916;8.990;2023-08-30T05:43:24;1.73;;;1.63;;
12768;SDS011;6448;48.916;8.990;2023-08-30T05:44:24;1.73;;;1.60;;
12768;SDS011;6448;48.916;8.990;2023-08-30T05:45:27;1.50;;;1.40;;
12768;SDS011;6448;48.916;8.990;2023-08-30T05:46:28;1.80;;;1.50;;
12768;SDS011;6448;48.916;8.990;2023-08-30T05:47:29;1.70;;;1.60;;
12768;SDS011;6448;48.916;8.990;2023-08-30T05:48:30;2.10;;;1.50;;
12768;SDS011;6448;48.916;8.990;2023-08-30T05:49:34;2.13;;;1.60;;
12768;SDS011;6448;48.916;8.990;2023-08-30T05:50:36;1.50;;;1.40;;
12768;SDS011;6448;48.916;8.990;2023-08-30T05:51:38;1.60;;;1.50;;
12768;SDS011;6448;48.916;8.990;2023-08-30T05:52:38;1.50;;;1.40;;
12768;SDS011;6448;48.916;8.990;2023-08-30T05:53:41;2.10;;;1.60;;
12768;SDS011;6448;48.916;8.990;2023-08-30T05:54:42;1.80;;;1.70;;
12768;SDS011;6448;48.916;8.990;2023-08-30T05:55:44;2.10;;;1.70;;
12768;SDS011;6448;48.916;8.990;2023-08-30T05:56:45;1.65;;;1.55;;
12768;SDS011;6448;48.916;8.990;2023-08-30T05:57:47;1.83;;;1.67;;
12768;SDS011;6448;48.916;8.990;2023-08-30T05:58:47;1.63;;;1.52;;
12768;SDS011;6448;48.916;8.990;2023-08-30T05:59:48;1.60;;;1.50;;
12768;SDS011;6448;48.916;8.990;2023-08-30T06:00:50;1.60;;;1.50;;
12768;SDS011;6448;48.916;8.990;2023-08-30T06:01:51;1.63;;;1.52;;
12768;SDS011;6448;48.916;8.990;2023-08-30T06:02:53;2.00;;;1.80;;
12768;SDS011;6448;48.916;8.990;2023-08-30T06:03:53;1.60;;;1.50;;
12768;SDS011;6448;48.916;8.990;2023-08-30T06:04:56;1.70;;;1.60;;
12768;SDS011;6448;48.916;8.990;2023-08-30T06:05:58;1.70;;;1.60;;
12768;SDS011;6448;48.916;8.990;2023-08-30T06:07:00;1.70;;;1.60;;
12768;SDS011;6448;48.916;8.990;2023-08-30T06:08:01;1.83;;;1.73;;
12768;SDS011;6448;48.916;8.990;2023-08-30T06:09:04;2.20;;;1.90;;
12768;SDS011;6448;48.916;8.990;2023-08-30T06:10:05;1.70;;;1.60;;
12768;SDS011;6448;48.916;8.990;2023-08-30T06:11:07;1.70;;;1.60;;
12768;SDS011;6448;48.916;8.990;2023-08-30T06:12:08;1.80;;;1.70;;
12768;SDS011;6448;48.916;8.990;2023-08-30T06:13:10;1.90;;;1.80;;
12768;SDS011;6448;48.916;8.990;2023-08-30T06:14:10;1.90;;;1.80;;
12768;SDS011;6448;48.916;8.990;2023-08-30T06:15:12;1.90;;;1.63;;
12768;SDS011;6448;48.916;8.990;2023-08-30T06:16:13;1.80;;;1.70;;
12768;SDS011;6448;48.916;8.990;2023-08-30T06:17:15;1.83;;;1.73;;
12768;SDS011;6448;48.916;8.990;2023-08-30T06:18:16;1.73;;;1.63;;
12768;SDS011;6448;48.916;8.990;2023-08-30T06:19:17;2.08;;;1.70;;
12768;SDS011;6448;48.916;8.990;2023-08-30T06:20:19;1.90;;;1.70;;
12768;SDS011;6448;48.916;8.990;2023-08-30T06:21:21;1.88;;;1.70;;
12768;SDS011;6448;48.916;8.990;2023-08-30T06:22:23;1.90;;;1.80;;